Forside
METAR-TAF:

METAR-TAF

Lufthavne :

Lee's Summit Municipal Airport

Lee's Summit, Missouri, USA

Breddekreds: 38-57-35N, længdekreds: 094-22-18W, højde: 306 m

Aktuelle vejr

Denne rapport blev lavet for 1 time og 0 minutter siden, kl. 21:53 UTC
Vind 8 kt fra sydsydvest
Temperatur 13°C
Fugtighed 47%
Tryk 1017 hPa
Sigt: 16.1 km
skyfri

METAR: KLXT 162153Z AUTO 20008KT 10SM CLR 13/02 A3002 RMK AO2 SLP170 T01330022

Tid: 16:53 (22:53 UTC)


TAF: fraværende

Vejrobservationer og prognoser fra mere end 4000 lufthavne (METAR og TAF).

De gule og røde prikker repræsenterer de meteorologiske stationer.

Flyt musen over at se navnet på stationen.

Så klik over at se vejr observationer og prognoser.

At skifte det kort: Klik på de grønne knapper med et sort kors for at zoome ind; på den grønne knap med en bindestreg for at zoome ud; eller på de grønne pile for tilstødende kort.


METAR-TAF: